createdAt,value
2017-06-20T00:01:48.139Z,69.43
2017-06-20T00:04:18.498Z,69.65
2017-06-20T00:06:48.255Z,69.40
2017-06-20T00:09:17.960Z,69.22
2017-06-20T00:11:47.747Z,69.11
2017-06-20T00:14:18.445Z,68.83
2017-06-20T00:16:49.186Z,69.33
2017-06-20T00:19:18.918Z,69.35
2017-06-20T00:21:48.648Z,70.58
2017-06-20T00:24:18.407Z,70.04
2017-06-20T00:26:48.118Z,69.86
2017-06-20T00:29:17.822Z,69.99
2017-06-20T00:31:47.573Z,70.21
2017-06-20T00:34:17.292Z,70.90
2017-06-20T00:36:47.039Z,70.59
2017-06-20T00:39:16.750Z,70.63
2017-06-20T00:41:46.510Z,70.97
2017-06-20T00:44:16.221Z,70.74
2017-06-20T00:46:45.939Z,70.42
2017-06-20T00:49:15.734Z,70.94
2017-06-20T00:51:45.497Z,70.53
2017-06-20T00:54:15.242Z,70.72
2017-06-20T00:56:44.957Z,71.38
2017-06-20T00:59:14.745Z,71.79
2017-06-20T01:01:44.109Z,71.91
2017-06-20T01:04:13.831Z,71.92
2017-06-20T01:06:43.594Z,72.18
2017-06-20T01:09:13.294Z,72.11
2017-06-20T01:11:43.035Z,72.06
2017-06-20T01:14:12.742Z,72.32
2017-06-20T01:16:42.490Z,72.08
2017-06-20T01:19:11.871Z,71.69
2017-06-20T01:21:41.586Z,72.31
2017-06-20T01:24:11.318Z,72.91
2017-06-20T01:26:41.023Z,73.38
2017-06-20T01:29:10.754Z,73.92
2017-06-20T01:31:40.116Z,73.46
2017-06-20T01:34:09.868Z,73.35
2017-06-20T01:36:39.582Z,73.43
2017-06-20T01:39:09.307Z,73.17
2017-06-20T01:41:39.046Z,73.44
2017-06-20T01:44:08.753Z,73.95
2017-06-20T01:46:38.512Z,73.50
2017-06-20T01:49:08.268Z,73.58
2017-06-20T01:51:37.980Z,74.03
2017-06-20T01:54:07.707Z,74.11
2017-06-20T01:56:37.036Z,73.89
2017-06-20T01:59:06.768Z,73.72
2017-06-20T02:01:36.100Z,74.07
2017-06-20T02:04:05.874Z,74.26
2017-06-20T02:06:35.601Z,74.02
2017-06-20T02:09:04.585Z,74.38
2017-06-20T02:11:34.790Z,74.58
2017-06-20T02:14:04.586Z,74.68
2017-06-20T02:16:34.329Z,74.08
2017-06-20T02:19:04.083Z,74.35
2017-06-20T02:21:33.910Z,74.60
2017-06-20T02:24:03.630Z,75.07
2017-06-20T02:26:32.999Z,75.19
2017-06-20T02:29:02.764Z,75.01
2017-06-20T02:31:31.761Z,75.12
2017-06-20T02:34:01.499Z,75.69
2017-06-20T02:36:31.212Z,75.87
2017-06-20T02:39:04.842Z,75.76
2017-06-20T02:41:37.015Z,76.43
2017-06-20T02:44:06.767Z,77.17
2017-06-20T02:46:36.468Z,77.18
2017-06-20T02:49:06.177Z,77.25
2017-06-20T02:51:35.947Z,76.94
2017-06-20T02:54:05.656Z,77.13
2017-06-20T02:56:35.393Z,77.17
2017-06-20T02:59:05.106Z,76.71
2017-06-20T03:01:34.854Z,76.57
2017-06-20T03:04:04.565Z,76.08
2017-06-20T03:06:34.279Z,76.61
2017-06-20T03:09:03.456Z,76.46
2017-06-20T03:11:33.176Z,76.54
2017-06-20T03:14:02.934Z,76.70
2017-06-20T03:16:32.658Z,76.50
2017-06-20T03:19:02.432Z,76.46
2017-06-20T03:21:32.155Z,76.22
2017-06-20T03:24:01.861Z,76.25
2017-06-20T03:26:31.624Z,76.47
2017-06-20T03:29:01.352Z,76.31
2017-06-20T03:31:31.114Z,78.14
2017-06-20T03:34:00.906Z,76.10
2017-06-20T03:36:30.698Z,75.82
2017-06-20T03:39:00.420Z,75.88
2017-06-20T03:41:30.164Z,76.28
2017-06-20T03:43:59.532Z,76.12
2017-06-20T03:46:29.287Z,75.79
2017-06-20T03:48:59.022Z,76.63
2017-06-20T03:51:28.814Z,76.83
2017-06-20T03:53:58.558Z,77.08
2017-06-20T03:56:28.268Z,76.66
2017-06-20T03:58:58.088Z,76.92
2017-06-20T04:01:27.813Z,76.76
2017-06-20T04:03:57.987Z,76.13
2017-06-20T04:06:28.337Z,74.82
2017-06-20T04:08:58.152Z,74.08
2017-06-20T04:11:28.103Z,74.12
2017-06-20T04:13:57.520Z,73.85
2017-06-20T04:16:27.280Z,74.15
2017-06-20T04:18:56.985Z,74.81
2017-06-20T04:21:32.861Z,73.58
2017-06-20T04:24:04.636Z,73.83
2017-06-20T04:26:36.592Z,73.01
2017-06-20T04:29:06.323Z,72.58
2017-06-20T04:31:36.053Z,72.68
2017-06-20T04:34:05.802Z,72.40
2017-06-20T04:36:35.531Z,71.70
2017-06-20T04:39:04.564Z,71.65
2017-06-20T04:41:34.292Z,71.22
2017-06-20T04:44:04.059Z,70.80
2017-06-20T04:46:33.784Z,70.21
2017-06-20T04:49:03.531Z,69.17
2017-06-20T04:51:34.005Z,69.11
2017-06-20T04:54:03.718Z,68.59
2017-06-20T04:56:33.494Z,68.03
2017-06-20T04:59:03.208Z,67.00
2017-06-20T05:01:32.993Z,66.79
2017-06-20T05:04:02.710Z,66.57
2017-06-20T05:06:32.425Z,66.50
2017-06-20T05:09:02.163Z,65.12
2017-06-20T05:11:31.894Z,64.85
2017-06-20T05:14:01.619Z,64.49
2017-06-20T05:16:31.329Z,64.37
2017-06-20T05:19:01.073Z,64.27
2017-06-20T05:21:31.630Z,64.52
2017-06-20T05:24:01.391Z,64.09
2017-06-20T05:26:31.107Z,63.59
2017-06-20T05:29:00.814Z,63.86
2017-06-20T05:31:30.551Z,63.56
2017-06-20T05:34:00.279Z,63.94
2017-06-20T05:36:30.025Z,63.56
2017-06-20T05:38:59.755Z,63.37
2017-06-20T05:41:29.551Z,63.38
2017-06-20T05:43:59.266Z,63.30
2017-06-20T05:46:28.983Z,63.04
2017-06-20T05:48:58.742Z,63.60
2017-06-20T05:51:28.446Z,63.01
2017-06-20T05:53:58.221Z,63.95
2017-06-20T05:56:27.919Z,63.87
2017-06-20T05:58:57.677Z,63.17
2017-06-20T06:01:27.383Z,64.19
2017-06-20T06:03:57.099Z,63.60
2017-06-20T06:06:26.827Z,62.34
2017-06-20T06:08:56.532Z,62.20
2017-06-20T06:11:26.262Z,61.88
2017-06-20T06:13:55.969Z,61.34
2017-06-20T06:16:25.710Z,60.83
2017-06-20T06:18:55.414Z,60.86
2017-06-20T06:21:25.116Z,60.21
2017-06-20T06:23:54.864Z,59.90
2017-06-20T06:26:24.588Z,59.93
2017-06-20T06:28:54.316Z,60.50
2017-06-20T06:31:29.594Z,60.79
2017-06-20T06:34:01.491Z,60.05
2017-06-20T06:36:32.039Z,59.47
2017-06-20T06:39:01.609Z,59.12
2017-06-20T06:41:31.335Z,58.81
2017-06-20T06:46:37.752Z,57.53
2017-06-20T06:49:07.456Z,57.90
2017-06-20T06:51:37.196Z,56.97
2017-06-20T06:54:06.918Z,56.92
2017-06-20T06:56:36.667Z,56.61
2017-06-20T06:59:06.371Z,56.46
2017-06-20T07:01:36.077Z,56.40
2017-06-20T07:04:05.806Z,55.81
2017-06-20T07:06:35.516Z,56.06
2017-06-20T07:09:04.346Z,55.32
2017-06-20T07:11:34.070Z,54.11
2017-06-20T07:14:03.809Z,53.71
2017-06-20T07:16:33.530Z,53.19
2017-06-20T07:19:03.247Z,53.05
2017-06-20T07:21:32.996Z,51.41
2017-06-20T07:24:02.713Z,51.17
2017-06-20T07:26:32.450Z,50.71
2017-06-20T07:29:02.150Z,50.89
2017-06-20T07:31:31.907Z,50.06
2017-06-20T07:34:01.600Z,50.49
2017-06-20T07:36:31.324Z,50.08
2017-06-20T07:39:01.065Z,49.00
2017-06-20T07:41:30.786Z,48.05
2017-06-20T07:44:00.527Z,48.18
2017-06-20T07:46:30.238Z,48.38
2017-06-20T07:48:59.944Z,47.91
2017-06-20T07:51:29.714Z,46.43
2017-06-20T07:53:59.510Z,46.95
2017-06-20T07:56:29.658Z,47.60
2017-06-20T07:58:59.379Z,47.84
2017-06-20T08:01:29.170Z,47.22
2017-06-20T08:03:58.899Z,46.08
2017-06-20T08:06:28.607Z,45.81
2017-06-20T08:08:58.372Z,46.16
2017-06-20T08:11:28.087Z,45.76
2017-06-20T08:13:57.855Z,45.88
2017-06-20T08:16:27.587Z,45.12
2017-06-20T08:18:57.358Z,44.42
2017-06-20T08:21:32.432Z,45.73
2017-06-20T08:24:02.243Z,44.81
2017-06-20T08:26:31.598Z,44.73
2017-06-20T08:29:01.318Z,45.08
2017-06-20T08:31:31.051Z,45.32
2017-06-20T08:34:00.763Z,45.14
2017-06-20T08:36:33.257Z,45.33
2017-06-20T08:39:02.785Z,39.44
2017-06-20T08:41:32.547Z,40.82
2017-06-20T08:44:02.250Z,41.06
2017-06-20T08:46:32.008Z,42.20
2017-06-20T08:49:01.733Z,42.23
2017-06-20T08:51:31.522Z,41.22
2017-06-20T08:54:01.288Z,41.57
2017-06-20T08:56:31.002Z,42.28
2017-06-20T08:59:00.737Z,41.97
2017-06-20T09:01:30.446Z,42.40
2017-06-20T09:04:00.380Z,43.29
2017-06-20T09:06:30.170Z,42.70
2017-06-20T09:08:59.932Z,42.67
2017-06-20T09:11:29.678Z,42.69
2017-06-20T09:13:59.375Z,43.30
2017-06-20T09:16:29.110Z,43.13
2017-06-20T09:18:58.842Z,43.94
2017-06-20T09:21:28.562Z,44.29
2017-06-20T09:23:58.280Z,43.25
2017-06-20T09:26:28.037Z,43.70
2017-06-20T09:28:57.414Z,44.61
2017-06-20T09:31:27.141Z,42.48
2017-06-20T09:33:56.872Z,42.71
2017-06-20T09:36:26.603Z,42.90
2017-06-20T09:38:56.688Z,41.52
2017-06-20T09:41:26.402Z,40.63
2017-06-20T09:43:56.131Z,40.88
2017-06-20T09:46:25.841Z,40.31
2017-06-20T09:48:55.598Z,40.27
2017-06-20T09:51:25.300Z,39.36
2017-06-20T09:53:54.847Z,39.96
2017-06-20T09:56:24.599Z,38.61
2017-06-20T09:58:54.299Z,39.16
2017-06-20T10:01:24.045Z,39.13
2017-06-20T10:03:53.767Z,39.58
2017-06-20T10:06:23.498Z,39.81
2017-06-20T10:08:53.229Z,39.87
2017-06-20T10:11:23.004Z,39.87
2017-06-20T10:13:54.597Z,40.11
2017-06-20T10:16:25.218Z,39.03
2017-06-20T10:18:54.979Z,38.81
2017-06-20T10:21:24.696Z,39.00
2017-06-20T10:23:54.476Z,38.12
2017-06-20T10:26:24.187Z,37.89
2017-06-20T10:28:53.908Z,38.52
2017-06-20T10:31:23.684Z,37.57
2017-06-20T10:33:53.383Z,38.01
2017-06-20T10:36:23.119Z,38.04
2017-06-20T10:38:52.822Z,38.74
2017-06-20T10:41:22.590Z,38.58
2017-06-20T10:43:52.295Z,38.45
2017-06-20T10:46:21.983Z,38.77
2017-06-20T10:48:51.715Z,38.75
2017-06-20T10:51:21.479Z,37.70
2017-06-20T10:53:51.210Z,38.47
2017-06-20T10:56:21.009Z,36.92
2017-06-20T10:58:50.757Z,37.27
2017-06-20T11:01:20.554Z,37.05
2017-06-20T11:03:50.270Z,37.37
2017-06-20T11:06:20.008Z,38.01
2017-06-20T11:08:49.734Z,38.89
2017-06-20T11:11:19.501Z,39.05
2017-06-20T11:13:49.214Z,39.50
2017-06-20T11:16:18.970Z,39.89
2017-06-20T11:18:48.684Z,38.91
2017-06-20T11:21:18.382Z,38.13
2017-06-20T11:23:48.130Z,37.59
2017-06-20T11:26:17.836Z,37.66
2017-06-20T11:28:47.573Z,36.67
2017-06-20T11:31:17.287Z,36.88
2017-06-20T11:33:47.050Z,36.78
2017-06-20T11:36:16.745Z,36.51
2017-06-20T11:38:46.459Z,37.52
2017-06-20T11:41:16.181Z,38.11
2017-06-20T11:43:45.534Z,38.54
2017-06-20T11:46:15.257Z,37.99
2017-06-20T11:48:44.962Z,37.59
2017-06-20T11:51:14.727Z,38.21
2017-06-20T11:53:44.430Z,38.32
2017-06-20T11:56:14.162Z,38.54
2017-06-20T11:58:44.267Z,38.76
2017-06-20T12:01:13.978Z,37.50
2017-06-20T12:03:43.734Z,37.32
2017-06-20T12:06:13.446Z,37.52
2017-06-20T12:08:43.184Z,37.18
2017-06-20T12:11:12.914Z,37.73
2017-06-20T12:13:42.614Z,37.54
2017-06-20T12:16:12.353Z,37.19
2017-06-20T12:18:42.081Z,37.10
2017-06-20T12:21:11.808Z,37.55
2017-06-20T12:23:41.521Z,38.26
2017-06-20T12:26:11.293Z,37.15
2017-06-20T12:28:41.011Z,36.56
2017-06-20T12:31:10.704Z,36.70
2017-06-20T12:33:46.447Z,35.59
2017-06-20T12:36:19.356Z,35.97
2017-06-20T12:38:53.884Z,36.67
2017-06-20T12:41:24.494Z,37.51
2017-06-20T12:43:54.256Z,37.08
2017-06-20T12:46:23.959Z,35.51
2017-06-20T12:48:53.679Z,36.39
2017-06-20T12:51:23.427Z,36.63
2017-06-20T12:53:53.137Z,36.44
2017-06-20T12:56:22.867Z,36.02
2017-06-20T12:58:52.600Z,37.09
2017-06-20T13:01:22.414Z,37.75
2017-06-20T13:03:52.110Z,38.07
2017-06-20T13:06:25.418Z,37.58
2017-06-20T13:08:55.127Z,36.85
2017-06-20T13:11:24.846Z,38.03
2017-06-20T13:13:54.560Z,38.03
2017-06-20T13:16:24.254Z,38.75
2017-06-20T13:18:53.990Z,38.65
2017-06-20T13:21:23.701Z,38.12
2017-06-20T13:23:53.450Z,37.98
2017-06-20T13:26:23.172Z,38.13
2017-06-20T13:28:52.876Z,38.04
2017-06-20T13:31:22.631Z,38.50
2017-06-20T13:33:52.330Z,38.08
2017-06-20T13:36:22.061Z,38.86
2017-06-20T13:38:51.802Z,38.38
2017-06-20T13:41:21.608Z,37.88
2017-06-20T13:43:51.330Z,37.07
2017-06-20T13:46:21.126Z,37.54
2017-06-20T13:48:50.858Z,38.06
2017-06-20T13:51:20.649Z,37.73
2017-06-20T13:53:50.382Z,38.00
2017-06-20T13:56:20.102Z,38.45
2017-06-20T13:58:49.864Z,38.14
2017-06-20T14:01:19.635Z,38.14
2017-06-20T14:03:49.409Z,38.73
2017-06-20T14:06:19.118Z,37.88
2017-06-20T14:08:49.054Z,38.96
2017-06-20T14:11:18.813Z,38.78
2017-06-20T14:13:48.525Z,39.49
2017-06-20T14:16:18.320Z,39.53
2017-06-20T14:18:48.043Z,39.42
2017-06-20T14:21:17.646Z,39.27
2017-06-20T14:23:47.362Z,39.09
2017-06-20T14:26:17.084Z,39.14
2017-06-20T14:28:46.851Z,38.31
2017-06-20T14:31:16.590Z,38.03
2017-06-20T14:33:46.524Z,38.29
2017-06-20T14:36:15.926Z,38.62
2017-06-20T14:38:45.729Z,39.37
2017-06-20T14:41:15.459Z,38.79
2017-06-20T14:43:45.899Z,39.96
2017-06-20T14:46:15.693Z,39.47
2017-06-20T14:48:45.467Z,39.67
2017-06-20T14:51:15.242Z,39.78
2017-06-20T14:53:44.996Z,39.65
2017-06-20T14:56:14.776Z,39.48
2017-06-20T14:58:44.571Z,39.48
2017-06-20T15:01:14.182Z,39.11
2017-06-20T15:03:44.724Z,38.95
2017-06-20T15:06:16.555Z,39.62
2017-06-20T15:08:47.730Z,39.68
2017-06-20T15:11:24.647Z,40.22
2017-06-20T15:14:01.843Z,39.85
2017-06-20T15:16:34.671Z,40.46
2017-06-20T15:19:05.408Z,40.45
2017-06-20T15:21:36.679Z,39.98
2017-06-20T15:24:06.781Z,40.07
2017-06-20T15:26:37.569Z,40.41
2017-06-20T15:29:10.306Z,40.22
2017-06-20T15:31:41.388Z,39.84
2017-06-20T15:34:12.656Z,40.21
2017-06-20T15:36:43.629Z,40.76
2017-06-20T15:39:16.693Z,40.98
2017-06-20T15:41:47.607Z,40.31
2017-06-20T15:44:19.924Z,40.86
2017-06-20T15:46:49.687Z,41.80
2017-06-20T15:49:21.327Z,42.26
2017-06-20T15:51:53.680Z,42.48
2017-06-20T15:54:24.708Z,42.76
2017-06-20T15:56:55.469Z,42.21
2017-06-20T15:59:26.820Z,42.34
2017-06-20T16:01:57.676Z,42.77
2017-06-20T16:04:30.614Z,43.58
2017-06-20T16:07:03.396Z,41.57
2017-06-20T16:09:33.464Z,41.57
2017-06-20T16:12:08.905Z,41.72
2017-06-20T16:14:40.153Z,42.62
2017-06-20T16:17:12.179Z,42.81
2017-06-20T16:19:43.191Z,42.75
2017-06-20T16:22:15.435Z,42.87
2017-06-20T16:24:47.912Z,43.56
2017-06-20T16:27:19.133Z,43.74
2017-06-20T16:29:49.645Z,44.56
2017-06-20T16:32:21.715Z,45.19
2017-06-20T16:34:54.161Z,45.45
2017-06-20T16:37:30.078Z,45.91
2017-06-20T16:40:00.723Z,46.17
2017-06-20T16:42:33.582Z,45.58
2017-06-20T16:45:05.259Z,45.81
2017-06-20T16:47:39.135Z,45.92
2017-06-20T16:50:13.521Z,46.27
2017-06-20T16:52:44.772Z,46.06
2017-06-20T16:55:18.144Z,46.28
2017-06-20T16:57:52.067Z,46.41
2017-06-20T17:00:23.371Z,46.56
2017-06-20T17:02:54.200Z,46.57
2017-06-20T17:05:26.535Z,46.85
2017-06-20T17:07:57.100Z,46.14
2017-06-20T17:10:28.223Z,46.28
2017-06-20T17:12:59.231Z,46.65
2017-06-20T17:15:29.074Z,46.50
2017-06-20T17:18:00.171Z,46.81
2017-06-20T17:20:30.606Z,46.41
2017-06-20T17:23:00.389Z,46.18
2017-06-20T17:25:30.115Z,46.46
2017-06-20T17:28:00.410Z,46.18
2017-06-20T17:30:30.595Z,46.07
2017-06-20T17:33:00.311Z,46.44
2017-06-20T17:35:32.491Z,45.53
2017-06-20T17:38:04.099Z,46.11
2017-06-20T17:40:35.904Z,45.89
2017-06-20T17:43:08.396Z,45.71
2017-06-20T17:45:40.717Z,45.50
2017-06-20T17:48:12.518Z,45.95
2017-06-20T17:50:43.724Z,45.93
2017-06-20T17:53:16.580Z,45.94
2017-06-20T17:55:49.058Z,46.54
2017-06-20T17:58:21.394Z,46.22
2017-06-20T18:00:52.804Z,46.27
2017-06-20T18:03:24.077Z,46.34
2017-06-20T18:05:55.874Z,46.41
2017-06-20T18:08:29.357Z,46.78
2017-06-20T18:11:02.436Z,46.84
2017-06-20T18:13:33.107Z,47.20
2017-06-20T18:16:05.186Z,46.90
2017-06-20T18:18:34.891Z,47.37
2017-06-20T18:21:06.015Z,47.16
2017-06-20T18:23:38.263Z,47.46
2017-06-20T18:26:10.598Z,47.60
2017-06-20T18:28:41.166Z,47.78
2017-06-20T18:31:10.940Z,48.15
2017-06-20T18:33:41.741Z,47.86
2017-06-20T18:36:14.923Z,48.06
2017-06-20T18:38:46.665Z,48.52
2017-06-20T18:41:20.465Z,48.75
2017-06-20T18:43:53.756Z,49.30
2017-06-20T18:46:24.362Z,49.34
2017-06-20T18:48:56.019Z,49.35
2017-06-20T18:51:28.160Z,49.98
2017-06-20T18:54:00.801Z,51.04
2017-06-20T18:56:33.496Z,51.28
2017-06-20T18:59:05.545Z,51.16
2017-06-20T19:01:37.326Z,51.68
2017-06-20T19:04:09.821Z,51.31
2017-06-20T19:06:40.858Z,50.55
2017-06-20T19:09:12.100Z,50.52
2017-06-20T19:11:44.124Z,50.69
2017-06-20T19:14:14.448Z,50.07
2017-06-20T19:16:44.774Z,50.01
2017-06-20T19:19:15.934Z,50.61
2017-06-20T19:21:45.779Z,50.09
2017-06-20T19:24:17.853Z,50.33
2017-06-20T19:26:50.605Z,50.58
2017-06-20T19:29:22.152Z,50.68
2017-06-20T19:31:52.955Z,50.90
2017-06-20T19:34:22.750Z,51.14
2017-06-20T19:36:52.464Z,51.62
2017-06-20T19:39:23.957Z,51.93
2017-06-20T19:41:56.031Z,51.87
2017-06-20T19:44:29.327Z,52.08
2017-06-20T19:47:00.407Z,52.43
2017-06-20T19:49:31.662Z,52.40
2017-06-20T19:52:04.888Z,52.56
2017-06-20T19:54:37.062Z,53.20
2017-06-20T19:57:09.739Z,53.07
2017-06-20T19:59:41.855Z,53.29
2017-06-20T20:02:15.129Z,53.67
2017-06-20T20:04:45.961Z,53.77
2017-06-20T20:07:15.689Z,53.67
2017-06-20T20:09:45.413Z,53.86
2017-06-20T20:12:15.155Z,54.05
2017-06-20T20:14:44.879Z,53.91
2017-06-20T20:17:14.611Z,54.17
2017-06-20T20:19:44.327Z,54.68
2017-06-20T20:22:14.099Z,54.88
2017-06-20T20:24:43.815Z,55.62
2017-06-20T20:27:13.541Z,55.21
2017-06-20T20:29:43.263Z,55.48
2017-06-20T20:32:13.899Z,55.42
2017-06-20T20:34:45.173Z,55.83
2017-06-20T20:37:16.208Z,55.86
2017-06-20T20:39:47.637Z,55.37
2017-06-20T20:42:19.020Z,54.76
2017-06-20T20:44:49.361Z,54.97
2017-06-20T20:47:19.991Z,55.11
2017-06-20T20:49:50.866Z,54.98
2017-06-20T20:52:21.495Z,54.90
2017-06-20T20:54:51.746Z,54.79
2017-06-20T20:57:21.541Z,54.50
2017-06-20T20:59:51.972Z,54.73
2017-06-20T21:02:21.789Z,55.04
2017-06-20T21:04:51.530Z,54.94
2017-06-20T21:07:21.365Z,55.77
2017-06-20T21:09:51.067Z,56.17
2017-06-20T21:12:20.816Z,56.10
2017-06-20T21:14:50.518Z,55.32
2017-06-20T21:17:20.232Z,56.29
2017-06-20T21:19:49.962Z,56.09
2017-06-20T21:22:19.689Z,55.09
2017-06-20T21:24:49.423Z,55.67
2017-06-20T21:27:19.164Z,54.69
2017-06-20T21:29:48.918Z,54.19
2017-06-20T21:32:18.619Z,54.42
2017-06-20T21:34:48.326Z,53.83
2017-06-20T21:37:18.066Z,54.10
2017-06-20T21:39:47.782Z,54.36
2017-06-20T21:42:17.511Z,54.31
2017-06-20T21:44:47.210Z,53.96
2017-06-20T21:47:16.977Z,53.75
2017-06-20T21:49:46.682Z,53.32
2017-06-20T21:52:16.383Z,53.26
2017-06-20T21:54:46.128Z,53.46
2017-06-20T21:57:15.837Z,53.84
2017-06-20T21:59:45.596Z,54.55
2017-06-20T22:02:15.303Z,54.44
2017-06-20T22:04:45.121Z,54.29
2017-06-20T22:07:14.858Z,54.06
2017-06-20T22:09:44.594Z,54.31
2017-06-20T22:12:14.335Z,54.29
2017-06-20T22:14:44.041Z,54.62
2017-06-20T22:17:13.803Z,54.55
2017-06-20T22:19:43.538Z,54.73
2017-06-20T22:22:13.335Z,54.87
2017-06-20T22:24:43.043Z,55.24
2017-06-20T22:27:12.766Z,55.28
2017-06-20T22:29:42.495Z,55.49
2017-06-20T22:32:14.003Z,56.42
2017-06-20T22:34:43.743Z,56.91
2017-06-20T22:37:13.455Z,56.71
2017-06-20T22:39:43.216Z,57.43
2017-06-20T22:42:12.933Z,57.33
2017-06-20T22:44:42.657Z,56.98
2017-06-20T22:47:12.393Z,56.87
2017-06-20T22:49:42.101Z,57.61
2017-06-20T22:52:11.865Z,57.47
2017-06-20T22:54:42.227Z,57.91
2017-06-20T22:57:12.040Z,58.18
2017-06-20T22:59:41.742Z,58.41
2017-06-20T23:02:11.445Z,58.21
2017-06-20T23:04:41.183Z,58.45
2017-06-20T23:07:10.926Z,57.98
2017-06-20T23:09:40.677Z,59.20
2017-06-20T23:12:10.403Z,58.76
2017-06-20T23:14:40.181Z,59.70
2017-06-20T23:17:09.894Z,59.53
2017-06-20T23:19:39.612Z,59.00
2017-06-20T23:22:09.384Z,58.77
2017-06-20T23:24:39.091Z,58.39
2017-06-20T23:27:08.805Z,58.79
2017-06-20T23:29:39.414Z,59.59
2017-06-20T23:32:09.120Z,58.66
2017-06-20T23:34:43.105Z,58.17
2017-06-20T23:37:12.806Z,58.77
2017-06-20T23:39:42.534Z,58.38
2017-06-20T23:42:12.277Z,58.12
2017-06-20T23:44:41.985Z,58.33
2017-06-20T23:47:11.742Z,58.56
2017-06-20T23:49:41.452Z,59.06
2017-06-20T23:52:12.098Z,59.41
2017-06-20T23:54:41.816Z,59.62
2017-06-20T23:57:11.527Z,59.05
2017-06-20T23:59:41.267Z,59.42
